Amador City, California
Current Conditions -  °F | °C
As of 8:15 AM on Friday 24 Oct 2014 (Local Time) from KPVF Reporting Station
Clear Clear  
Wind Chill: 17°   Ceiling: Unl
Heat Index: 17°   Visibility: 10mi
Dew Point:   Wind: 0mph
Humidity: 39%   Direction: NA
Pressure: 30.04"   Gusts: NA
Location:  38.42°N, 120.82°W
Report Text: KPVF 241515Z AUTO 00000KT 10SM CLR 17/03 A3004 RMK AO1
Loading
Personal Weather Stations






























Interactive Weather Map New forecast layout! Learn more

10-Day Weather Forecast

Advertisements
Track Severe Weather on mobile